createdAt,value
2023-04-21T00:02:03.824Z,101385.00
2023-04-21T00:04:34.020Z,101387.00
2023-04-21T00:07:06.803Z,101381.00
2023-04-21T00:09:36.937Z,101383.00
2023-04-21T00:12:07.440Z,101378.00
2023-04-21T00:14:37.568Z,101378.00
2023-04-21T00:17:07.640Z,101374.00
2023-04-21T00:19:37.926Z,101374.00
2023-04-21T00:22:14.945Z,101379.00
2023-04-21T00:24:45.004Z,101375.00
2023-04-21T00:27:15.799Z,101372.00
2023-04-21T00:29:46.055Z,101370.00
2023-04-21T00:32:16.465Z,101376.00
2023-04-21T00:34:46.527Z,101364.00
2023-04-21T00:37:19.222Z,101363.00
2023-04-21T00:39:49.227Z,101367.00
2023-04-21T00:42:19.636Z,101362.00
2023-04-21T00:44:49.680Z,101367.00
2023-04-21T00:47:19.802Z,101365.00
2023-04-21T00:49:50.208Z,101363.00
2023-04-21T00:52:22.975Z,101360.00
2023-04-21T00:54:53.526Z,101360.00
2023-04-21T00:57:24.211Z,101359.00
2023-04-21T00:59:54.399Z,101356.00
2023-04-21T01:02:25.911Z,101365.00
2023-04-21T01:04:55.999Z,101363.00
2023-04-21T01:07:28.757Z,101368.00
2023-04-21T01:09:59.969Z,101371.00
2023-04-21T01:12:29.948Z,101361.00
2023-04-21T01:15:00.290Z,101359.00
2023-04-21T01:17:31.472Z,101361.00
2023-04-21T01:20:04.934Z,101360.00
2023-04-21T01:22:40.333Z,101359.00
2023-04-21T01:25:11.581Z,101343.00
2023-04-21T01:27:41.612Z,101364.00
2023-04-21T01:30:13.154Z,101364.00
2023-04-21T01:32:43.282Z,101360.00
2023-04-21T01:35:13.800Z,101352.00
2023-04-21T01:37:46.419Z,101349.00
2023-04-21T01:40:16.700Z,101349.00
2023-04-21T01:42:48.188Z,101350.00
2023-04-21T01:45:18.212Z,101355.00
2023-04-21T01:47:48.203Z,101342.00
2023-04-21T01:50:18.393Z,101338.00
2023-04-21T01:52:50.988Z,101346.00
2023-04-21T01:55:21.486Z,101343.00
2023-04-21T01:57:51.450Z,101341.00
2023-04-21T02:00:22.161Z,101338.00
2023-04-21T02:02:52.273Z,101343.00
2023-04-21T02:05:22.473Z,101341.00
2023-04-21T02:07:55.021Z,101339.00
2023-04-21T02:10:25.239Z,101332.00
2023-04-21T02:12:55.213Z,101331.00
2023-04-21T02:15:25.178Z,101332.00
2023-04-21T02:17:55.211Z,101327.00
2023-04-21T02:20:25.294Z,101320.00
2023-04-21T02:22:57.851Z,101322.00
2023-04-21T02:25:28.300Z,101324.00
2023-04-21T02:27:58.245Z,101324.00
2023-04-21T02:30:28.251Z,101328.00
2023-04-21T02:32:58.477Z,101332.00
2023-04-21T02:35:28.608Z,101329.00
2023-04-21T02:38:06.551Z,101330.00
2023-04-21T02:40:36.594Z,101328.00
2023-04-21T02:43:06.542Z,101321.00
2023-04-21T02:45:36.550Z,101325.00
2023-04-21T02:48:06.894Z,101321.00
2023-04-21T02:50:37.048Z,101325.00
2023-04-21T02:53:10.353Z,101319.00
2023-04-21T02:55:40.320Z,101321.00
2023-04-21T02:58:10.414Z,101323.00
2023-04-21T03:00:40.644Z,101320.00
2023-04-21T03:03:10.795Z,101324.00
2023-04-21T03:05:40.919Z,101319.00
2023-04-21T03:08:13.461Z,101311.00
2023-04-21T03:10:43.670Z,101318.00
2023-04-21T03:13:13.618Z,101323.00
2023-04-21T03:15:43.568Z,101328.00
2023-04-21T03:18:13.980Z,101315.00
2023-04-21T03:20:44.158Z,101309.00
2023-04-21T03:23:16.916Z,101307.00
2023-04-21T03:25:46.911Z,101316.00
2023-04-21T03:28:17.164Z,101306.00
2023-04-21T03:30:47.129Z,101311.00
2023-04-21T03:33:17.173Z,101315.00
2023-04-21T03:35:47.170Z,101319.00
2023-04-21T03:38:19.670Z,101323.00
2023-04-21T03:40:49.614Z,101317.00
2023-04-21T03:43:19.584Z,101315.00
2023-04-21T03:45:49.590Z,101313.00
2023-04-21T03:48:19.633Z,101318.00
2023-04-21T03:50:49.639Z,101316.00
2023-04-21T03:53:22.243Z,101313.00
2023-04-21T03:55:53.475Z,101314.00
2023-04-21T03:58:23.461Z,101309.00
2023-04-21T04:00:53.466Z,101315.00
2023-04-21T04:03:23.881Z,101312.00
2023-04-21T04:05:54.002Z,101317.00
2023-04-21T04:08:26.607Z,101319.00
2023-04-21T04:10:56.865Z,101320.00
2023-04-21T04:13:27.801Z,101318.00
2023-04-21T04:15:58.076Z,101320.00
2023-04-21T04:18:28.302Z,101324.00
2023-04-21T04:20:58.302Z,101327.00
2023-04-21T04:23:30.887Z,101327.00
2023-04-21T04:26:01.789Z,101325.00
2023-04-21T04:28:33.994Z,101331.00
2023-04-21T04:31:04.219Z,101326.00
2023-04-21T04:33:34.280Z,101334.00
2023-04-21T04:36:04.332Z,101325.00
2023-04-21T04:38:37.935Z,101328.00
2023-04-21T04:41:09.186Z,101336.00
2023-04-21T04:43:39.702Z,101331.00
2023-04-21T04:46:13.188Z,101331.00
2023-04-21T04:48:43.425Z,101329.00
2023-04-21T04:51:13.759Z,101338.00
2023-04-21T04:53:46.423Z,101341.00
2023-04-21T04:56:16.406Z,101342.00
2023-04-21T04:58:46.684Z,101343.00
2023-04-21T05:01:17.439Z,101342.00
2023-04-21T05:03:48.742Z,101344.00
2023-04-21T05:06:18.784Z,101351.00
2023-04-21T05:08:51.449Z,101343.00
2023-04-21T05:11:21.597Z,101343.00
2023-04-21T05:13:51.584Z,101350.00
2023-04-21T05:16:21.634Z,101347.00
2023-04-21T05:18:54.261Z,101337.00
2023-04-21T05:21:29.102Z,101348.00
2023-04-21T05:24:02.623Z,101346.00
2023-04-21T05:26:33.018Z,101350.00
2023-04-21T05:29:03.002Z,101347.00
2023-04-21T05:31:33.289Z,101346.00
2023-04-21T05:34:03.412Z,101348.00
2023-04-21T05:36:33.443Z,101344.00
2023-04-21T05:39:06.556Z,101342.00
2023-04-21T05:41:36.506Z,101341.00
2023-04-21T05:44:06.626Z,101346.00
2023-04-21T05:46:36.752Z,101337.00
2023-04-21T05:49:06.886Z,101358.00
2023-04-21T05:51:37.121Z,101345.00
2023-04-21T05:54:09.760Z,101344.00
2023-04-21T05:56:39.788Z,101345.00
2023-04-21T05:59:09.722Z,101348.00
2023-04-21T06:01:39.712Z,101344.00
2023-04-21T06:04:09.958Z,101338.00
2023-04-21T06:06:40.155Z,101338.00
2023-04-21T06:09:15.783Z,101331.00
2023-04-21T06:11:45.853Z,101340.00
2023-04-21T06:14:15.989Z,101338.00
2023-04-21T06:16:46.359Z,101337.00
2023-04-21T06:19:16.666Z,101331.00
2023-04-21T06:21:46.906Z,101335.00
2023-04-21T06:24:25.303Z,101336.00
2023-04-21T06:26:56.459Z,101332.00
2023-04-21T06:29:26.653Z,101329.00
2023-04-21T06:31:56.855Z,101326.00
2023-04-21T06:34:27.116Z,101322.00
2023-04-21T06:36:57.215Z,101336.00
2023-04-21T06:39:30.137Z,101326.00
2023-04-21T06:42:01.434Z,101316.00
2023-04-21T06:44:32.569Z,101322.00
2023-04-21T06:47:02.995Z,101320.00
2023-04-21T06:49:34.377Z,101317.00
2023-04-21T06:52:05.003Z,101326.00
2023-04-21T06:54:38.596Z,101330.00
2023-04-21T06:57:08.901Z,101325.00
2023-04-21T06:59:39.147Z,101319.00
2023-04-21T07:02:09.742Z,101329.00
2023-04-21T07:04:39.897Z,101319.00
2023-04-21T07:07:10.060Z,101327.00
2023-04-21T07:09:42.937Z,101313.00
2023-04-21T07:12:13.021Z,101318.00
2023-04-21T07:14:43.407Z,101315.00
2023-04-21T07:17:13.710Z,101314.00
2023-04-21T07:19:43.996Z,101314.00
2023-04-21T07:22:14.151Z,101322.00
2023-04-21T07:24:49.122Z,101323.00
2023-04-21T07:27:19.611Z,101314.00
2023-04-21T07:29:49.805Z,101323.00
2023-04-21T07:32:20.056Z,101321.00
2023-04-21T07:34:50.173Z,101323.00
2023-04-21T07:37:22.841Z,101321.00
2023-04-21T07:39:56.394Z,101319.00
2023-04-21T07:42:27.079Z,101311.00
2023-04-21T07:44:57.832Z,101328.00
2023-04-21T07:47:28.089Z,101315.00
2023-04-21T07:49:58.685Z,101313.00
2023-04-21T07:52:29.079Z,101312.00
2023-04-21T07:55:02.067Z,101320.00
2023-04-21T07:57:34.719Z,101321.00
2023-04-21T08:00:04.920Z,101317.00
2023-04-21T08:02:35.500Z,101325.00
2023-04-21T08:05:05.773Z,101319.00
2023-04-21T08:07:36.320Z,101316.00
2023-04-21T08:10:11.373Z,101316.00
2023-04-21T08:12:41.718Z,101316.00
2023-04-21T08:15:12.792Z,101318.00
2023-04-21T08:17:43.026Z,101316.00
2023-04-21T08:20:14.718Z,101317.00
2023-04-21T08:22:47.293Z,101311.00
2023-04-21T08:25:20.987Z,101304.00
2023-04-21T08:27:51.311Z,101310.00
2023-04-21T08:30:22.004Z,101301.00
2023-04-21T08:32:52.378Z,101300.00
2023-04-21T08:35:22.779Z,101306.00
2023-04-21T08:37:53.537Z,101297.00
2023-04-21T08:40:36.127Z,101303.00
2023-04-21T08:43:07.226Z,101300.00
2023-04-21T08:45:38.007Z,101302.00
2023-04-21T08:48:10.099Z,101292.00
2023-04-21T08:50:41.747Z,101294.00
2023-04-21T08:53:12.033Z,101307.00
2023-04-21T08:55:49.286Z,101300.00
2023-04-21T08:58:22.928Z,101304.00
2023-04-21T09:00:53.298Z,101308.00
2023-04-21T09:03:26.589Z,101306.00
2023-04-21T09:06:05.755Z,101309.00
2023-04-21T09:08:38.290Z,101308.00
2023-04-21T09:11:11.326Z,101306.00
2023-04-21T09:13:41.639Z,101303.00
2023-04-21T09:16:21.740Z,101300.00
2023-04-21T09:18:53.578Z,101309.00
2023-04-21T09:21:23.926Z,101306.00
2023-04-21T09:23:56.299Z,101295.00
2023-04-21T09:26:29.883Z,101291.00
2023-04-21T09:29:00.389Z,101299.00
2023-04-21T09:31:31.138Z,101302.00
2023-04-21T09:34:01.772Z,101294.00
2023-04-21T09:36:33.431Z,101290.00
2023-04-21T09:41:42.003Z,101287.00
2023-04-21T09:44:12.163Z,101285.00
2023-04-21T09:46:47.221Z,101291.00
2023-04-21T09:49:20.739Z,101286.00
2023-04-21T09:54:30.539Z,101276.00
2023-04-21T09:57:07.180Z,101286.00
2023-04-21T09:59:40.718Z,101282.00
2023-04-21T10:02:13.184Z,101282.00
2023-04-21T10:04:46.037Z,101280.00
2023-04-21T10:07:16.595Z,101289.00
2023-04-21T10:09:53.759Z,101284.00
2023-04-21T10:12:28.035Z,101283.00
2023-04-21T10:14:59.278Z,101278.00
2023-04-21T10:17:30.501Z,101273.00
2023-04-21T10:20:01.624Z,101279.00
2023-04-21T10:22:33.786Z,101280.00
2023-04-21T10:25:06.534Z,101270.00
2023-04-21T10:27:43.222Z,101276.00
2023-04-21T10:30:23.142Z,101269.00
2023-04-21T10:33:06.731Z,101271.00
2023-04-21T10:36:15.916Z,101267.00
2023-04-21T10:38:47.228Z,101264.00
2023-04-21T10:41:30.952Z,101265.00
2023-04-21T10:44:07.097Z,101252.00
2023-04-21T10:46:39.697Z,101260.00
2023-04-21T10:49:11.698Z,101255.00
2023-04-21T10:52:11.102Z,101255.00
2023-04-21T10:54:47.126Z,101255.00
2023-04-21T10:57:21.914Z,101257.00
2023-04-21T10:59:54.637Z,101245.00
2023-04-21T11:02:24.955Z,101245.00
2023-04-21T11:04:56.770Z,101242.00
2023-04-21T11:07:27.845Z,101233.00
2023-04-21T11:10:03.276Z,101242.00
2023-04-21T11:12:35.448Z,101237.00
2023-04-21T11:15:13.600Z,101228.00
2023-04-21T11:17:43.987Z,101220.00
2023-04-21T11:20:14.620Z,101226.00
2023-04-21T11:22:45.165Z,101227.00
2023-04-21T11:25:21.277Z,101219.00
2023-04-21T11:28:00.308Z,101224.00
2023-04-21T11:30:38.298Z,101219.00
2023-04-21T11:33:08.808Z,101225.00
2023-04-21T11:35:43.697Z,101220.00
2023-04-21T11:38:14.999Z,101220.00
2023-04-21T11:40:50.151Z,101200.00
2023-04-21T11:43:20.477Z,101214.00
2023-04-21T11:45:54.961Z,101202.00
2023-04-21T11:48:24.929Z,101200.00
2023-04-21T11:50:55.198Z,101201.00
2023-04-21T11:53:25.643Z,101195.00
2023-04-21T11:55:57.219Z,101193.00
2023-04-21T11:58:27.686Z,101188.00
2023-04-21T12:01:00.685Z,101185.00
2023-04-21T12:03:31.120Z,101187.00
2023-04-21T12:06:01.604Z,101180.00
2023-04-21T12:08:34.176Z,101180.00
2023-04-21T12:11:06.073Z,101181.00
2023-04-21T12:13:36.458Z,101180.00
2023-04-21T12:16:10.399Z,101172.00
2023-04-21T12:18:41.059Z,101176.00
2023-04-21T12:21:11.417Z,101174.00
2023-04-21T12:23:41.554Z,101171.00
2023-04-21T12:26:12.131Z,101163.00
2023-04-21T12:28:42.826Z,101159.00
2023-04-21T12:31:16.087Z,101159.00
2023-04-21T12:33:46.435Z,101161.00
2023-04-21T12:36:16.955Z,101152.00
2023-04-21T12:38:47.431Z,101150.00
2023-04-21T12:41:17.675Z,101151.00
2023-04-21T12:43:47.818Z,101148.00
2023-04-21T12:46:20.674Z,101156.00
2023-04-21T12:48:52.589Z,101149.00
2023-04-21T12:51:23.082Z,101149.00
2023-04-21T12:53:53.509Z,101144.00
2023-04-21T12:56:23.970Z,101141.00
2023-04-21T12:58:54.295Z,101142.00
2023-04-21T13:01:28.278Z,101130.00
2023-04-21T13:03:58.567Z,101133.00
2023-04-21T13:06:29.150Z,101129.00
2023-04-21T13:08:59.348Z,101130.00
2023-04-21T13:11:29.683Z,101126.00
2023-04-21T13:13:59.859Z,101137.00
2023-04-21T13:16:32.958Z,101122.00
2023-04-21T13:19:03.203Z,101128.00
2023-04-21T13:21:34.635Z,101130.00
2023-04-21T13:24:05.155Z,101124.00
2023-04-21T13:26:36.403Z,101120.00
2023-04-21T13:29:07.429Z,101111.00
2023-04-21T13:31:40.697Z,101113.00
2023-04-21T13:34:11.221Z,101109.00
2023-04-21T13:36:41.422Z,101112.00
2023-04-21T13:39:13.069Z,101102.00
2023-04-21T13:41:43.231Z,101102.00
2023-04-21T13:44:13.332Z,101105.00
2023-04-21T13:46:46.219Z,101095.00
2023-04-21T13:49:16.606Z,101090.00
2023-04-21T13:51:46.643Z,101096.00
2023-04-21T13:54:16.661Z,101086.00
2023-04-21T13:56:46.777Z,101085.00
2023-04-21T13:59:17.641Z,101081.00
2023-04-21T14:01:50.331Z,101071.00
2023-04-21T14:04:21.604Z,101076.00
2023-04-21T14:06:53.037Z,101072.00
2023-04-21T14:09:23.192Z,101069.00
2023-04-21T14:11:54.122Z,101067.00
2023-04-21T14:14:35.514Z,101066.00
2023-04-21T14:17:10.461Z,101059.00
2023-04-21T14:19:40.660Z,101056.00
2023-04-21T14:22:10.652Z,101059.00
2023-04-21T14:24:40.706Z,101049.00
2023-04-21T14:27:10.862Z,101030.00
2023-04-21T14:29:40.954Z,101042.00
2023-04-21T14:32:13.638Z,101045.00
2023-04-21T14:34:43.695Z,101040.00
2023-04-21T14:37:13.723Z,101038.00
2023-04-21T14:39:43.688Z,101042.00
2023-04-21T14:42:13.707Z,101025.00
2023-04-21T14:44:43.919Z,101025.00
2023-04-21T14:47:17.355Z,101023.00
2023-04-21T14:49:50.002Z,101025.00
2023-04-21T14:52:20.081Z,101024.00
2023-04-21T14:54:50.290Z,101017.00
2023-04-21T14:57:21.911Z,101009.00
2023-04-21T14:59:54.061Z,101007.00
2023-04-21T15:02:26.866Z,101011.00
2023-04-21T15:04:57.433Z,101007.00
2023-04-21T15:07:27.697Z,101008.00
2023-04-21T15:09:57.726Z,101002.00
2023-04-21T15:12:28.159Z,101010.00
2023-04-21T15:14:58.229Z,100999.00
2023-04-21T15:17:30.939Z,101000.00
2023-04-21T15:20:00.981Z,100989.00
2023-04-21T15:22:31.518Z,100994.00
2023-04-21T15:25:01.567Z,100986.00
2023-04-21T15:27:31.644Z,100987.00
2023-04-21T15:30:04.039Z,100990.00
2023-04-21T15:32:36.967Z,100984.00
2023-04-21T15:35:08.694Z,100981.00
2023-04-21T15:37:38.932Z,100977.00
2023-04-21T15:40:11.954Z,100982.00
2023-04-21T15:42:42.251Z,100971.00
2023-04-21T15:45:13.636Z,100970.00
2023-04-21T15:47:46.328Z,100969.00
2023-04-21T15:50:16.464Z,100966.00
2023-04-21T15:52:46.946Z,100965.00
2023-04-21T15:55:16.997Z,100970.00
2023-04-21T15:57:48.586Z,100957.00
2023-04-21T16:00:19.814Z,100959.00
2023-04-21T16:02:52.898Z,100958.00
2023-04-21T16:05:27.621Z,100954.00
2023-04-21T16:07:59.099Z,100955.00
2023-04-21T16:10:29.244Z,100953.00
2023-04-21T16:12:59.502Z,100953.00
2023-04-21T16:15:30.181Z,100954.00
2023-04-21T16:18:06.700Z,100960.00
2023-04-21T16:20:37.082Z,100953.00
2023-04-21T16:23:07.550Z,100947.00
2023-04-21T16:25:37.856Z,100941.00
2023-04-21T16:28:09.446Z,100933.00
2023-04-21T16:30:43.692Z,100945.00
2023-04-21T16:33:16.700Z,100941.00
2023-04-21T16:35:47.080Z,100937.00
2023-04-21T16:38:17.444Z,100941.00
2023-04-21T16:40:48.128Z,100938.00
2023-04-21T16:43:18.458Z,100926.00
2023-04-21T16:45:48.580Z,100923.00
2023-04-21T16:48:21.534Z,100928.00
2023-04-21T16:50:53.961Z,100923.00
2023-04-21T16:53:25.656Z,100926.00
2023-04-21T16:55:56.196Z,100922.00
2023-04-21T16:58:26.620Z,100924.00
2023-04-21T17:00:57.751Z,100923.00
2023-04-21T17:03:30.800Z,100925.00
2023-04-21T17:06:00.860Z,100915.00
2023-04-21T17:08:31.025Z,100910.00
2023-04-21T17:11:01.050Z,100920.00
2023-04-21T17:13:31.315Z,100915.00
2023-04-21T17:16:01.593Z,100913.00
2023-04-21T17:18:34.593Z,100918.00
2023-04-21T17:21:06.319Z,100911.00
2023-04-21T17:23:37.020Z,100916.00
2023-04-21T17:26:08.175Z,100922.00
2023-04-21T17:28:39.078Z,100916.00
2023-04-21T17:31:15.730Z,100918.00
2023-04-21T17:33:49.102Z,100919.00
2023-04-21T17:36:19.316Z,100914.00
2023-04-21T17:38:49.381Z,100910.00
2023-04-21T17:41:20.169Z,100919.00
2023-04-21T17:43:50.364Z,100916.00
2023-04-21T17:46:21.722Z,100918.00
2023-04-21T17:48:57.042Z,100911.00
2023-04-21T17:51:28.873Z,100913.00
2023-04-21T17:53:58.890Z,100916.00
2023-04-21T17:56:28.883Z,100916.00
2023-04-21T17:58:59.349Z,100916.00
2023-04-21T18:01:30.458Z,100912.00
2023-04-21T18:04:04.645Z,100919.00
2023-04-21T18:06:35.090Z,100916.00
2023-04-21T18:09:05.960Z,100912.00
2023-04-21T18:11:36.163Z,100914.00
2023-04-21T18:14:06.291Z,100913.00
2023-04-21T18:16:36.474Z,100921.00
2023-04-21T18:19:09.292Z,100921.00
2023-04-21T18:21:39.677Z,100916.00
2023-04-21T18:24:10.612Z,100922.00
2023-04-21T18:26:41.135Z,100916.00
2023-04-21T18:29:11.493Z,100922.00
2023-04-21T18:31:42.110Z,100921.00
2023-04-21T18:34:15.378Z,100926.00
2023-04-21T18:36:45.773Z,100915.00
2023-04-21T18:39:17.134Z,100917.00
2023-04-21T18:41:48.605Z,100921.00
2023-04-21T18:44:19.125Z,100915.00
2023-04-21T18:46:49.505Z,100923.00
2023-04-21T18:49:22.289Z,100916.00
2023-04-21T18:51:52.320Z,100923.00
2023-04-21T18:54:22.398Z,100926.00
2023-04-21T18:56:52.486Z,100929.00
2023-04-21T18:59:23.760Z,100920.00
2023-04-21T19:01:54.276Z,100920.00
2023-04-21T19:04:27.102Z,100917.00
2023-04-21T19:06:57.260Z,100915.00
2023-04-21T19:09:28.210Z,100922.00
2023-04-21T19:11:58.370Z,100922.00
2023-04-21T19:14:34.636Z,100913.00
2023-04-21T19:17:09.682Z,100915.00
2023-04-21T19:19:42.230Z,100920.00
2023-04-21T19:22:12.254Z,100918.00
2023-04-21T19:24:42.224Z,100916.00
2023-04-21T19:27:12.224Z,100913.00
2023-04-21T19:29:42.711Z,100915.00
2023-04-21T19:32:12.758Z,100917.00
2023-04-21T19:34:45.311Z,100920.00
2023-04-21T19:37:15.731Z,100916.00
2023-04-21T19:39:45.714Z,100922.00
2023-04-21T19:42:15.672Z,100920.00
2023-04-21T19:44:45.623Z,100910.00
2023-04-21T19:47:15.795Z,100916.00
2023-04-21T19:49:48.582Z,100920.00
2023-04-21T19:52:18.619Z,100920.00
2023-04-21T19:54:48.576Z,100917.00
2023-04-21T19:57:18.623Z,100915.00
2023-04-21T19:59:49.209Z,100911.00
2023-04-21T20:02:19.654Z,100913.00
2023-04-21T20:04:53.802Z,100914.00
2023-04-21T20:07:24.095Z,100919.00
2023-04-21T20:09:54.313Z,100916.00
2023-04-21T20:12:24.399Z,100919.00
2023-04-21T20:14:54.392Z,100916.00
2023-04-21T20:17:24.523Z,100911.00
2023-04-21T20:19:57.204Z,100921.00
2023-04-21T20:22:27.259Z,100923.00
2023-04-21T20:24:58.106Z,100918.00
2023-04-21T20:27:28.473Z,100914.00
2023-04-21T20:29:58.425Z,100919.00
2023-04-21T20:32:28.624Z,100924.00
2023-04-21T20:35:01.356Z,100919.00
2023-04-21T20:37:33.627Z,100920.00
2023-04-21T20:40:08.419Z,100925.00
2023-04-21T20:42:38.582Z,100917.00
2023-04-21T20:45:11.202Z,100926.00
2023-04-21T20:47:41.867Z,100925.00
2023-04-21T20:50:14.595Z,100928.00
2023-04-21T20:52:44.599Z,100923.00
2023-04-21T20:55:14.618Z,100922.00
2023-04-21T20:57:44.643Z,100920.00
2023-04-21T21:00:15.831Z,100923.00
2023-04-21T21:02:45.957Z,100933.00
2023-04-21T21:05:18.786Z,100928.00
2023-04-21T21:07:48.770Z,100935.00
2023-04-21T21:10:18.792Z,100931.00
2023-04-21T21:12:48.754Z,100922.00
2023-04-21T21:15:18.939Z,100932.00
2023-04-21T21:17:48.988Z,100923.00
2023-04-21T21:20:21.807Z,100931.00
2023-04-21T21:22:51.800Z,100926.00
2023-04-21T21:25:21.801Z,100923.00
2023-04-21T21:27:51.773Z,100920.00
2023-04-21T21:30:21.953Z,100926.00
2023-04-21T21:32:53.980Z,100926.00
2023-04-21T21:35:26.796Z,100931.00
2023-04-21T21:37:57.138Z,100917.00
2023-04-21T21:40:27.111Z,100923.00
2023-04-21T21:42:57.037Z,100923.00
2023-04-21T21:45:27.040Z,100921.00
2023-04-21T21:47:57.072Z,100928.00
2023-04-21T21:50:29.672Z,100929.00
2023-04-21T21:52:59.604Z,100926.00
2023-04-21T21:55:30.596Z,100929.00
2023-04-21T21:58:03.514Z,100931.00
2023-04-21T22:00:33.742Z,100931.00
2023-04-21T22:03:03.818Z,100926.00
2023-04-21T22:05:36.572Z,100937.00
2023-04-21T22:08:06.744Z,100931.00
2023-04-21T22:10:37.202Z,100931.00
2023-04-21T22:13:07.162Z,100929.00
2023-04-21T22:15:37.465Z,100932.00
2023-04-21T22:18:08.218Z,100926.00
2023-04-21T22:20:41.165Z,100932.00
2023-04-21T22:23:11.262Z,100932.00
2023-04-21T22:25:41.459Z,100928.00
2023-04-21T22:28:11.614Z,100937.00
2023-04-21T22:30:41.632Z,100935.00
2023-04-21T22:33:11.701Z,100931.00
2023-04-21T22:35:44.269Z,100939.00
2023-04-21T22:38:14.316Z,100936.00
2023-04-21T22:40:44.304Z,100939.00
2023-04-21T22:43:14.463Z,100936.00
2023-04-21T22:45:47.187Z,100940.00
2023-04-21T22:48:17.214Z,100937.00
2023-04-21T22:50:49.754Z,100940.00
2023-04-21T22:53:19.688Z,100953.00
2023-04-21T22:55:49.737Z,100948.00
2023-04-21T22:58:19.722Z,100949.00
2023-04-21T23:00:49.811Z,100957.00
2023-04-21T23:03:19.925Z,100951.00
2023-04-21T23:05:52.773Z,100961.00
2023-04-21T23:08:22.719Z,100955.00
2023-04-21T23:10:52.856Z,100953.00
2023-04-21T23:13:22.795Z,100951.00
2023-04-21T23:15:52.748Z,100949.00
2023-04-21T23:18:22.682Z,100947.00
2023-04-21T23:20:56.064Z,100946.00
2023-04-21T23:23:26.114Z,100954.00
2023-04-21T23:25:56.128Z,100948.00
2023-04-21T23:28:26.625Z,100946.00
2023-04-21T23:30:56.667Z,100944.00
2023-04-21T23:33:26.996Z,100953.00
2023-04-21T23:35:59.540Z,100945.00
2023-04-21T23:38:29.526Z,100946.00
2023-04-21T23:40:59.538Z,100944.00
2023-04-21T23:43:29.566Z,100936.00
2023-04-21T23:45:59.624Z,100947.00
2023-04-21T23:48:29.959Z,100943.00
2023-04-21T23:51:03.378Z,100941.00
2023-04-21T23:53:33.371Z,100936.00
2023-04-21T23:56:03.339Z,100933.00
2023-04-21T23:58:33.283Z,100928.00
